sensor_id;sensor_type;location;lat;lon;timestamp;pressure;altitude;pressure_sealevel;temperature;humidity
9462;BME280;4769;42.660;23.262;2023-01-10T00:00:54;93227.03;;;5.75;100.00
9462;BME280;4769;42.660;23.262;2023-01-10T00:03:20;93222.03;;;5.74;100.00
9462;BME280;4769;42.660;23.262;2023-01-10T00:05:47;93220.44;;;5.84;99.12
9462;BME280;4769;42.660;23.262;2023-01-10T00:08:15;93235.69;;;5.87;99.05
9462;BME280;4769;42.660;23.262;2023-01-10T00:10:42;93222.53;;;5.82;99.43
9462;BME280;4769;42.660;23.262;2023-01-10T00:13:14;93238.44;;;5.81;98.95
9462;BME280;4769;42.660;23.262;2023-01-10T00:15:49;93220.69;;;5.83;98.86
9462;BME280;4769;42.660;23.262;2023-01-10T00:18:15;93216.59;;;5.75;99.32
9462;BME280;4769;42.660;23.262;2023-01-10T00:20:42;93204.31;;;5.76;99.26
9462;BME280;4769;42.660;23.262;2023-01-10T00:23:10;93198.03;;;5.88;99.04
9462;BME280;4769;42.660;23.262;2023-01-10T00:25:36;93199.63;;;5.89;98.18
9462;BME280;4769;42.660;23.262;2023-01-10T00:28:03;93186.31;;;5.91;98.45
9462;BME280;4769;42.660;23.262;2023-01-10T00:30:38;93186.91;;;5.81;98.43
9462;BME280;4769;42.660;23.262;2023-01-10T00:33:05;93219.25;;;5.52;99.65
9462;BME280;4769;42.660;23.262;2023-01-10T00:35:33;93223.81;;;5.57;100.00
9462;BME280;4769;42.660;23.262;2023-01-10T00:38:00;93181.50;;;5.60;100.00
9462;BME280;4769;42.660;23.262;2023-01-10T00:40:30;93167.97;;;5.63;99.52
9462;BME280;4769;42.660;23.262;2023-01-10T00:42:56;93141.63;;;5.53;100.00
9462;BME280;4769;42.660;23.262;2023-01-10T00:45:50;93170.53;;;5.46;100.00
9462;BME280;4769;42.660;23.262;2023-01-10T00:48:18;93166.94;;;5.24;100.00
9462;BME280;4769;42.660;23.262;2023-01-10T00:50:45;93188.09;;;5.11;100.00
9462;BME280;4769;42.660;23.262;2023-01-10T00:53:12;93160.47;;;5.27;100.00
9462;BME280;4769;42.660;23.262;2023-01-10T00:55:38;93180.09;;;5.41;100.00
9462;BME280;4769;42.660;23.262;2023-01-10T00:58:06;93171.06;;;5.48;100.00
9462;BME280;4769;42.660;23.262;2023-01-10T01:00:36;93165.25;;;5.58;100.00
9462;BME280;4769;42.660;23.262;2023-01-10T01:03:04;93170.31;;;5.48;100.00
9462;BME280;4769;42.660;23.262;2023-01-10T01:05:32;93161.09;;;5.45;100.00
9462;BME280;4769;42.660;23.262;2023-01-10T01:07:59;93179.75;;;5.37;100.00
9462;BME280;4769;42.660;23.262;2023-01-10T01:10:25;93187.25;;;5.45;100.00
9462;BME280;4769;42.660;23.262;2023-01-10T01:12:52;93167.72;;;5.36;100.00
9462;BME280;4769;42.660;23.262;2023-01-10T01:15:19;93176.97;;;5.55;100.00
9462;BME280;4769;42.660;23.262;2023-01-10T01:17:46;93163.28;;;5.65;99.69
9462;BME280;4769;42.660;23.262;2023-01-10T01:20:15;93168.38;;;5.71;99.31
9462;BME280;4769;42.660;23.262;2023-01-10T01:22:42;93163.25;;;5.76;99.20
9462;BME280;4769;42.660;23.262;2023-01-10T01:25:08;93147.69;;;5.70;98.93
9462;BME280;4769;42.660;23.262;2023-01-10T01:27:35;93186.97;;;5.58;99.03
9462;BME280;4769;42.660;23.262;2023-01-10T01:30:03;93173.56;;;5.55;100.00
9462;BME280;4769;42.660;23.262;2023-01-10T01:32:30;93162.88;;;5.56;100.00
9462;BME280;4769;42.660;23.262;2023-01-10T01:34:57;93169.03;;;5.50;100.00
9462;BME280;4769;42.660;23.262;2023-01-10T01:37:25;93159.81;;;5.59;100.00
9462;BME280;4769;42.660;23.262;2023-01-10T01:39:52;93151.72;;;5.61;99.91
9462;BME280;4769;42.660;23.262;2023-01-10T01:42:24;93148.91;;;5.51;100.00
9462;BME280;4769;42.660;23.262;2023-01-10T01:47:57;93156.88;;;5.44;100.00
9462;BME280;4769;42.660;23.262;2023-01-10T01:50:28;93151.19;;;5.47;100.00
9462;BME280;4769;42.660;23.262;2023-01-10T01:53:02;93150.16;;;5.48;100.00
9462;BME280;4769;42.660;23.262;2023-01-10T01:55:31;93156.94;;;5.61;99.82
9462;BME280;4769;42.660;23.262;2023-01-10T01:58:01;93136.50;;;5.58;99.82
9462;BME280;4769;42.660;23.262;2023-01-10T02:00:30;93115.69;;;5.63;99.25
9462;BME280;4769;42.660;23.262;2023-01-10T02:02:58;93117.75;;;5.49;100.00
9462;BME280;4769;42.660;23.262;2023-01-10T02:05:26;93106.47;;;5.32;100.00
9462;BME280;4769;42.660;23.262;2023-01-10T02:07:54;93110.38;;;5.18;100.00
9462;BME280;4769;42.660;23.262;2023-01-10T02:10:28;93114.44;;;5.26;100.00
9462;BME280;4769;42.660;23.262;2023-01-10T02:13:00;93112.88;;;5.25;100.00
9462;BME280;4769;42.660;23.262;2023-01-10T02:15:28;93108.56;;;5.47;100.00
9462;BME280;4769;42.660;23.262;2023-01-10T02:17:55;93115.97;;;5.10;100.00
9462;BME280;4769;42.660;23.262;2023-01-10T02:20:23;93112.81;;;5.08;100.00
9462;BME280;4769;42.660;23.262;2023-01-10T02:23:12;93110.84;;;5.15;100.00
9462;BME280;4769;42.660;23.262;2023-01-10T02:29:13;93091.97;;;5.25;100.00
9462;BME280;4769;42.660;23.262;2023-01-10T02:32:09;93101.84;;;5.23;100.00
9462;BME280;4769;42.660;23.262;2023-01-10T02:34:48;93104.31;;;5.29;100.00
9462;BME280;4769;42.660;23.262;2023-01-10T02:37:18;93099.41;;;5.33;100.00
9462;BME280;4769;42.660;23.262;2023-01-10T02:39:55;93106.22;;;5.45;100.00
9462;BME280;4769;42.660;23.262;2023-01-10T02:42:29;93097.78;;;5.43;100.00
9462;BME280;4769;42.660;23.262;2023-01-10T02:45:05;93085.22;;;5.40;100.00
9462;BME280;4769;42.660;23.262;2023-01-10T02:47:37;93091.03;;;5.31;100.00
9462;BME280;4769;42.660;23.262;2023-01-10T02:50:27;93087.91;;;5.45;100.00
9462;BME280;4769;42.660;23.262;2023-01-10T02:52:55;93093.47;;;5.49;100.00
9462;BME280;4769;42.660;23.262;2023-01-10T02:55:26;93106.63;;;5.54;100.00
9462;BME280;4769;42.660;23.262;2023-01-10T02:58:05;93105.13;;;5.30;100.00
9462;BME280;4769;42.660;23.262;2023-01-10T03:00:43;93107.09;;;5.11;100.00
9462;BME280;4769;42.660;23.262;2023-01-10T03:03:23;93127.53;;;5.26;100.00
9462;BME280;4769;42.660;23.262;2023-01-10T03:06:04;93111.38;;;5.29;100.00
9462;BME280;4769;42.660;23.262;2023-01-10T03:08:37;93117.97;;;5.31;100.00
9462;BME280;4769;42.660;23.262;2023-01-10T03:11:07;93107.94;;;5.40;100.00
9462;BME280;4769;42.660;23.262;2023-01-10T03:13:40;93114.66;;;5.36;100.00
9462;BME280;4769;42.660;23.262;2023-01-10T03:16:12;93125.19;;;5.41;100.00
9462;BME280;4769;42.660;23.262;2023-01-10T03:18:44;93107.75;;;5.30;100.00
9462;BME280;4769;42.660;23.262;2023-01-10T03:21:14;93130.47;;;5.29;100.00
9462;BME280;4769;42.660;23.262;2023-01-10T03:23:42;93108.88;;;5.34;100.00
9462;BME280;4769;42.660;23.262;2023-01-10T03:26:11;93121.84;;;5.29;100.00
9462;BME280;4769;42.660;23.262;2023-01-10T03:28:43;93125.09;;;5.36;100.00
9462;BME280;4769;42.660;23.262;2023-01-10T03:31:15;93115.31;;;5.43;100.00
9462;BME280;4769;42.660;23.262;2023-01-10T03:33:44;93127.47;;;5.37;100.00
9462;BME280;4769;42.660;23.262;2023-01-10T03:36:19;93124.16;;;5.42;100.00
9462;BME280;4769;42.660;23.262;2023-01-10T03:38:53;93130.75;;;5.44;100.00
9462;BME280;4769;42.660;23.262;2023-01-10T03:41:28;93124.84;;;5.49;100.00
9462;BME280;4769;42.660;23.262;2023-01-10T03:44:07;93109.16;;;5.49;100.00
9462;BME280;4769;42.660;23.262;2023-01-10T03:46:58;93110.19;;;5.48;100.00
9462;BME280;4769;42.660;23.262;2023-01-10T03:49:31;93113.53;;;5.32;100.00
9462;BME280;4769;42.660;23.262;2023-01-10T03:51:59;93104.00;;;5.26;100.00
9462;BME280;4769;42.660;23.262;2023-01-10T03:54:27;93084.91;;;5.25;100.00
9462;BME280;4769;42.660;23.262;2023-01-10T03:56:54;93072.22;;;5.17;100.00
9462;BME280;4769;42.660;23.262;2023-01-10T03:59:23;93064.22;;;5.24;100.00
9462;BME280;4769;42.660;23.262;2023-01-10T04:01:51;93051.28;;;5.29;100.00
9462;BME280;4769;42.660;23.262;2023-01-10T04:04:18;93036.56;;;5.11;100.00
9462;BME280;4769;42.660;23.262;2023-01-10T04:06:46;93032.69;;;5.14;100.00
9462;BME280;4769;42.660;23.262;2023-01-10T04:09:13;93035.69;;;5.06;100.00
9462;BME280;4769;42.660;23.262;2023-01-10T04:11:39;93019.25;;;4.94;100.00
9462;BME280;4769;42.660;23.262;2023-01-10T04:14:06;93023.91;;;5.03;100.00
9462;BME280;4769;42.660;23.262;2023-01-10T04:16:33;93014.41;;;5.14;100.00
9462;BME280;4769;42.660;23.262;2023-01-10T04:18:59;93027.72;;;5.12;100.00
9462;BME280;4769;42.660;23.262;2023-01-10T04:21:26;93049.31;;;5.08;100.00
9462;BME280;4769;42.660;23.262;2023-01-10T04:23:55;93068.44;;;4.97;100.00
9462;BME280;4769;42.660;23.262;2023-01-10T04:26:22;93086.78;;;5.13;100.00
9462;BME280;4769;42.660;23.262;2023-01-10T04:28:49;93088.13;;;5.16;100.00
9462;BME280;4769;42.660;23.262;2023-01-10T04:31:16;93098.06;;;5.30;100.00
9462;BME280;4769;42.660;23.262;2023-01-10T04:33:47;93107.13;;;5.39;100.00
9462;BME280;4769;42.660;23.262;2023-01-10T04:36:13;93122.31;;;5.54;100.00
9462;BME280;4769;42.660;23.262;2023-01-10T04:38:40;93116.03;;;5.27;100.00
9462;BME280;4769;42.660;23.262;2023-01-10T04:41:09;93106.81;;;5.36;100.00
9462;BME280;4769;42.660;23.262;2023-01-10T04:43:36;93101.25;;;5.32;100.00
9462;BME280;4769;42.660;23.262;2023-01-10T04:46:05;93078.50;;;5.33;100.00
9462;BME280;4769;42.660;23.262;2023-01-10T04:48:32;93075.53;;;5.41;100.00
9462;BME280;4769;42.660;23.262;2023-01-10T04:51:00;93084.63;;;5.38;100.00
9462;BME280;4769;42.660;23.262;2023-01-10T04:53:27;93081.34;;;5.43;100.00
9462;BME280;4769;42.660;23.262;2023-01-10T04:55:54;93086.75;;;5.53;100.00
9462;BME280;4769;42.660;23.262;2023-01-10T04:58:22;93083.56;;;5.51;100.00
9462;BME280;4769;42.660;23.262;2023-01-10T05:00:49;93076.38;;;5.58;100.00
9462;BME280;4769;42.660;23.262;2023-01-10T05:03:16;93079.31;;;5.61;100.00
9462;BME280;4769;42.660;23.262;2023-01-10T05:05:44;93089.63;;;5.68;100.00
9462;BME280;4769;42.660;23.262;2023-01-10T05:08:11;93079.00;;;5.74;100.00
9462;BME280;4769;42.660;23.262;2023-01-10T05:10:38;93076.47;;;5.79;100.00
9462;BME280;4769;42.660;23.262;2023-01-10T05:13:04;93063.88;;;5.76;99.95
9462;BME280;4769;42.660;23.262;2023-01-10T05:15:32;93071.09;;;5.69;99.30
9462;BME280;4769;42.660;23.262;2023-01-10T05:17:59;93060.03;;;5.51;100.00
9462;BME280;4769;42.660;23.262;2023-01-10T05:20:26;93041.25;;;5.54;100.00
9462;BME280;4769;42.660;23.262;2023-01-10T05:22:53;93043.97;;;5.59;100.00
9462;BME280;4769;42.660;23.262;2023-01-10T05:25:20;93046.44;;;5.65;99.90
9462;BME280;4769;42.660;23.262;2023-01-10T05:27:46;93045.31;;;5.61;100.00
9462;BME280;4769;42.660;23.262;2023-01-10T05:30:14;93035.72;;;5.50;100.00
9462;BME280;4769;42.660;23.262;2023-01-10T05:32:42;93045.22;;;5.56;100.00
9462;BME280;4769;42.660;23.262;2023-01-10T05:35:09;93066.09;;;5.68;99.71
9462;BME280;4769;42.660;23.262;2023-01-10T05:37:35;93078.94;;;5.69;100.00
9462;BME280;4769;42.660;23.262;2023-01-10T05:40:03;93072.28;;;5.78;99.93
9462;BME280;4769;42.660;23.262;2023-01-10T05:42:30;93076.38;;;5.86;99.70
9462;BME280;4769;42.660;23.262;2023-01-10T05:44:56;93077.94;;;5.87;99.61
9462;BME280;4769;42.660;23.262;2023-01-10T05:47:23;93071.59;;;5.83;99.78
9462;BME280;4769;42.660;23.262;2023-01-10T05:49:51;93081.59;;;5.86;99.96
9462;BME280;4769;42.660;23.262;2023-01-10T05:52:18;93075.91;;;5.77;100.00
9462;BME280;4769;42.660;23.262;2023-01-10T05:54:44;93073.88;;;5.79;99.85
9462;BME280;4769;42.660;23.262;2023-01-10T05:57:11;93082.53;;;5.80;100.00
9462;BME280;4769;42.660;23.262;2023-01-10T05:59:38;93081.28;;;5.82;99.74
9462;BME280;4769;42.660;23.262;2023-01-10T06:02:05;93075.00;;;5.83;99.14
9462;BME280;4769;42.660;23.262;2023-01-10T06:04:32;93073.44;;;5.82;99.95
9462;BME280;4769;42.660;23.262;2023-01-10T06:07:00;93070.25;;;5.80;99.56
9462;BME280;4769;42.660;23.262;2023-01-10T06:09:27;93076.59;;;5.84;99.72
9462;BME280;4769;42.660;23.262;2023-01-10T06:11:53;93076.75;;;5.94;99.26
9462;BME280;4769;42.660;23.262;2023-01-10T06:14:20;93078.19;;;6.02;98.42
9462;BME280;4769;42.660;23.262;2023-01-10T06:16:47;93075.34;;;6.03;98.75
9462;BME280;4769;42.660;23.262;2023-01-10T06:19:14;93071.69;;;6.04;98.27
9462;BME280;4769;42.660;23.262;2023-01-10T06:21:40;93074.16;;;6.11;98.44
9462;BME280;4769;42.660;23.262;2023-01-10T07:04:51;93066.88;;;6.13;100.00
9462;BME280;4769;42.660;23.262;2023-01-10T07:07:18;93063.75;;;6.16;100.00
9462;BME280;4769;42.660;23.262;2023-01-10T07:09:44;93051.06;;;6.24;100.00
9462;BME280;4769;42.660;23.262;2023-01-10T07:12:11;93050.50;;;6.22;100.00
9462;BME280;4769;42.660;23.262;2023-01-10T07:14:38;93037.50;;;6.11;100.00
9462;BME280;4769;42.660;23.262;2023-01-10T07:17:05;93048.78;;;5.95;100.00
9462;BME280;4769;42.660;23.262;2023-01-10T07:19:32;93047.91;;;6.06;100.00
9462;BME280;4769;42.660;23.262;2023-01-10T07:22:01;93050.97;;;6.03;100.00
9462;BME280;4769;42.660;23.262;2023-01-10T07:24:28;93049.72;;;6.05;100.00
9462;BME280;4769;42.660;23.262;2023-01-10T07:26:55;93051.78;;;6.20;100.00
9462;BME280;4769;42.660;23.262;2023-01-10T07:29:21;93051.47;;;6.33;100.00
9462;BME280;4769;42.660;23.262;2023-01-10T07:31:48;93041.59;;;6.40;100.00
9462;BME280;4769;42.660;23.262;2023-01-10T07:34:15;93035.41;;;6.46;100.00
9462;BME280;4769;42.660;23.262;2023-01-10T07:36:41;93035.19;;;6.47;100.00
9462;BME280;4769;42.660;23.262;2023-01-10T07:39:09;93037.88;;;6.52;100.00
9462;BME280;4769;42.660;23.262;2023-01-10T07:41:36;93025.31;;;6.54;100.00
9462;BME280;4769;42.660;23.262;2023-01-10T07:44:04;93036.88;;;6.58;100.00
9462;BME280;4769;42.660;23.262;2023-01-10T07:46:31;93033.41;;;6.53;100.00
9462;BME280;4769;42.660;23.262;2023-01-10T07:48:57;93037.50;;;6.65;100.00
9462;BME280;4769;42.660;23.262;2023-01-10T07:51:24;93032.94;;;6.56;100.00
9462;BME280;4769;42.660;23.262;2023-01-10T07:53:51;93027.56;;;6.46;100.00
9462;BME280;4769;42.660;23.262;2023-01-10T07:56:19;93039.94;;;6.34;100.00
9462;BME280;4769;42.660;23.262;2023-01-10T07:58:46;93042.03;;;6.32;100.00
9462;BME280;4769;42.660;23.262;2023-01-10T08:01:12;93041.69;;;6.28;100.00
9462;BME280;4769;42.660;23.262;2023-01-10T08:03:39;93038.63;;;6.15;100.00
9462;BME280;4769;42.660;23.262;2023-01-10T08:06:07;93040.94;;;6.11;100.00
9462;BME280;4769;42.660;23.262;2023-01-10T08:08:36;93032.19;;;6.06;100.00
9462;BME280;4769;42.660;23.262;2023-01-10T08:11:03;93038.16;;;6.18;100.00
9462;BME280;4769;42.660;23.262;2023-01-10T08:13:32;93041.38;;;6.25;100.00
9462;BME280;4769;42.660;23.262;2023-01-10T08:15:58;93030.97;;;6.30;100.00
9462;BME280;4769;42.660;23.262;2023-01-10T08:18:25;93032.66;;;6.36;100.00
9462;BME280;4769;42.660;23.262;2023-01-10T08:20:53;93022.81;;;6.26;100.00
9462;BME280;4769;42.660;23.262;2023-01-10T08:23:20;93025.13;;;6.39;100.00
9462;BME280;4769;42.660;23.262;2023-01-10T08:25:47;93022.59;;;6.28;100.00
9462;BME280;4769;42.660;23.262;2023-01-10T08:28:15;93013.88;;;6.22;100.00
9462;BME280;4769;42.660;23.262;2023-01-10T08:30:43;93006.31;;;6.26;100.00
9462;BME280;4769;42.660;23.262;2023-01-10T08:33:11;93000.06;;;6.27;100.00
9462;BME280;4769;42.660;23.262;2023-01-10T08:35:38;93001.59;;;6.23;100.00
9462;BME280;4769;42.660;23.262;2023-01-10T08:38:05;93003.50;;;6.11;100.00
9462;BME280;4769;42.660;23.262;2023-01-10T08:40:32;92996.53;;;6.00;100.00
9462;BME280;4769;42.660;23.262;2023-01-10T08:43:01;93003.66;;;6.04;100.00
9462;BME280;4769;42.660;23.262;2023-01-10T08:45:28;93001.69;;;5.95;100.00
9462;BME280;4769;42.660;23.262;2023-01-10T08:47:56;92999.25;;;5.88;100.00
9462;BME280;4769;42.660;23.262;2023-01-10T08:50:23;92992.22;;;5.77;100.00
9462;BME280;4769;42.660;23.262;2023-01-10T08:52:50;92986.75;;;5.62;100.00
9462;BME280;4769;42.660;23.262;2023-01-10T08:55:17;92997.78;;;5.48;100.00
9462;BME280;4769;42.660;23.262;2023-01-10T08:57:44;92995.25;;;5.53;100.00
9462;BME280;4769;42.660;23.262;2023-01-10T09:00:12;92990.63;;;5.60;100.00
9462;BME280;4769;42.660;23.262;2023-01-10T09:02:39;92989.81;;;5.87;100.00
9462;BME280;4769;42.660;23.262;2023-01-10T09:05:08;92981.53;;;5.95;100.00
9462;BME280;4769;42.660;23.262;2023-01-10T09:07:35;92980.91;;;6.05;100.00
9462;BME280;4769;42.660;23.262;2023-01-10T09:10:03;92971.94;;;6.17;100.00
9462;BME280;4769;42.660;23.262;2023-01-10T09:12:29;92974.75;;;6.32;100.00
9462;BME280;4769;42.660;23.262;2023-01-10T09:15:14;92974.44;;;6.29;100.00
9462;BME280;4769;42.660;23.262;2023-01-10T09:17:40;92969.56;;;6.37;100.00
9462;BME280;4769;42.660;23.262;2023-01-10T09:20:09;92973.69;;;6.33;100.00
9462;BME280;4769;42.660;23.262;2023-01-10T09:22:37;92973.63;;;6.28;100.00
9462;BME280;4769;42.660;23.262;2023-01-10T09:25:05;92976.94;;;6.40;100.00
9462;BME280;4769;42.660;23.262;2023-01-10T09:27:32;92970.25;;;6.49;100.00
9462;BME280;4769;42.660;23.262;2023-01-10T09:29:59;92968.13;;;6.46;100.00
9462;BME280;4769;42.660;23.262;2023-01-10T09:32:25;92975.84;;;6.36;100.00
9462;BME280;4769;42.660;23.262;2023-01-10T09:34:52;92955.53;;;6.22;100.00
9462;BME280;4769;42.660;23.262;2023-01-10T09:37:20;92947.16;;;6.25;100.00
9462;BME280;4769;42.660;23.262;2023-01-10T09:39:47;92949.78;;;6.25;100.00
9462;BME280;4769;42.660;23.262;2023-01-10T09:42:24;92944.25;;;6.21;100.00
9462;BME280;4769;42.660;23.262;2023-01-10T09:45:00;92942.44;;;6.22;100.00
9462;BME280;4769;42.660;23.262;2023-01-10T09:47:38;92933.19;;;6.36;100.00
9462;BME280;4769;42.660;23.262;2023-01-10T09:50:14;92930.41;;;6.26;100.00
9462;BME280;4769;42.660;23.262;2023-01-10T09:52:49;92939.44;;;6.35;100.00
9462;BME280;4769;42.660;23.262;2023-01-10T09:55:23;92941.41;;;6.44;100.00
9462;BME280;4769;42.660;23.262;2023-01-10T09:57:55;92916.31;;;6.48;100.00
9462;BME280;4769;42.660;23.262;2023-01-10T10:00:33;92915.97;;;6.61;100.00
9462;BME280;4769;42.660;23.262;2023-01-10T10:03:04;92917.34;;;6.69;100.00
9462;BME280;4769;42.660;23.262;2023-01-10T10:05:36;92922.81;;;6.67;100.00
9462;BME280;4769;42.660;23.262;2023-01-10T10:08:13;92908.03;;;6.56;100.00
9462;BME280;4769;42.660;23.262;2023-01-10T10:10:48;92917.72;;;6.56;100.00
9462;BME280;4769;42.660;23.262;2023-01-10T10:13:20;92913.75;;;6.53;100.00
9462;BME280;4769;42.660;23.262;2023-01-10T10:15:52;92923.72;;;6.56;100.00
9462;BME280;4769;42.660;23.262;2023-01-10T10:18:29;92916.31;;;6.48;100.00
9462;BME280;4769;42.660;23.262;2023-01-10T10:21:02;92914.00;;;6.52;100.00
9462;BME280;4769;42.660;23.262;2023-01-10T10:23:55;92908.47;;;6.48;100.00
9462;BME280;4769;42.660;23.262;2023-01-10T10:26:27;92910.16;;;6.59;100.00
9462;BME280;4769;42.660;23.262;2023-01-10T10:29:17;92901.09;;;6.45;100.00
9462;BME280;4769;42.660;23.262;2023-01-10T10:32:13;92896.03;;;6.60;100.00
9462;BME280;4769;42.660;23.262;2023-01-10T10:34:47;92899.75;;;6.64;100.00
9462;BME280;4769;42.660;23.262;2023-01-10T10:37:19;92882.41;;;6.58;100.00
9462;BME280;4769;42.660;23.262;2023-01-10T10:39:51;92885.13;;;6.68;100.00
9462;BME280;4769;42.660;23.262;2023-01-10T10:42:19;92881.69;;;6.68;100.00
9462;BME280;4769;42.660;23.262;2023-01-10T10:44:50;92877.31;;;6.73;100.00
9462;BME280;4769;42.660;23.262;2023-01-10T10:47:19;92875.06;;;6.87;100.00
9462;BME280;4769;42.660;23.262;2023-01-10T10:49:50;92872.88;;;6.74;100.00
9462;BME280;4769;42.660;23.262;2023-01-10T10:52:23;92871.34;;;6.78;100.00
9462;BME280;4769;42.660;23.262;2023-01-10T10:54:52;92872.88;;;6.74;100.00
9462;BME280;4769;42.660;23.262;2023-01-10T10:57:22;92870.78;;;6.76;100.00
9462;BME280;4769;42.660;23.262;2023-01-10T10:59:50;92868.97;;;6.76;100.00
9462;BME280;4769;42.660;23.262;2023-01-10T11:02:22;92885.13;;;6.68;100.00
9462;BME280;4769;42.660;23.262;2023-01-10T11:04:52;92878.25;;;6.62;100.00
9462;BME280;4769;42.660;23.262;2023-01-10T11:07:21;92873.97;;;6.78;100.00
9462;BME280;4769;42.660;23.262;2023-01-10T11:09:48;92871.97;;;6.90;100.00
9462;BME280;4769;42.660;23.262;2023-01-10T11:12:24;92862.50;;;6.84;100.00
9462;BME280;4769;42.660;23.262;2023-01-10T11:14:52;92847.31;;;6.86;100.00
9462;BME280;4769;42.660;23.262;2023-01-10T11:17:21;92850.44;;;6.83;100.00
9462;BME280;4769;42.660;23.262;2023-01-10T11:19:55;92855.56;;;6.73;100.00
9462;BME280;4769;42.660;23.262;2023-01-10T11:22:23;92855.88;;;6.76;100.00
9462;BME280;4769;42.660;23.262;2023-01-10T11:24:52;92857.94;;;6.74;100.00
9462;BME280;4769;42.660;23.262;2023-01-10T11:27:23;92856.78;;;6.65;100.00
9462;BME280;4769;42.660;23.262;2023-01-10T11:29:52;92856.34;;;6.73;100.00
9462;BME280;4769;42.660;23.262;2023-01-10T11:32:23;92851.38;;;6.72;100.00
9462;BME280;4769;42.660;23.262;2023-01-10T11:34:54;92848.59;;;6.83;100.00
9462;BME280;4769;42.660;23.262;2023-01-10T11:37:24;92841.44;;;6.74;100.00
9462;BME280;4769;42.660;23.262;2023-01-10T11:40:15;92838.78;;;6.69;100.00
9462;BME280;4769;42.660;23.262;2023-01-10T11:42:44;92844.41;;;6.82;100.00
9462;BME280;4769;42.660;23.262;2023-01-10T11:45:28;92843.63;;;6.87;100.00
9462;BME280;4769;42.660;23.262;2023-01-10T11:48:04;92844.16;;;6.84;100.00
9462;BME280;4769;42.660;23.262;2023-01-10T11:50:35;92841.25;;;6.80;100.00
9462;BME280;4769;42.660;23.262;2023-01-10T11:53:03;92843.88;;;6.80;100.00
9462;BME280;4769;42.660;23.262;2023-01-10T11:55:32;92850.50;;;6.40;100.00
9462;BME280;4769;42.660;23.262;2023-01-10T11:58:05;92838.34;;;6.29;100.00
9462;BME280;4769;42.660;23.262;2023-01-10T12:00:37;92848.88;;;6.34;100.00
9462;BME280;4769;42.660;23.262;2023-01-10T12:03:21;92837.19;;;6.20;100.00
9462;BME280;4769;42.660;23.262;2023-01-10T12:05:51;92839.22;;;6.13;100.00
9462;BME280;4769;42.660;23.262;2023-01-10T12:08:36;92839.00;;;5.98;100.00
9462;BME280;4769;42.660;23.262;2023-01-10T12:11:05;92840.91;;;6.02;100.00
9462;BME280;4769;42.660;23.262;2023-01-10T12:13:45;92842.72;;;6.02;100.00
9462;BME280;4769;42.660;23.262;2023-01-10T12:16:20;92850.63;;;6.07;100.00
9462;BME280;4769;42.660;23.262;2023-01-10T12:18:48;92850.22;;;6.15;100.00
9462;BME280;4769;42.660;23.262;2023-01-10T12:21:19;92850.75;;;6.17;100.00
9462;BME280;4769;42.660;23.262;2023-01-10T12:23:48;92851.06;;;6.20;100.00
9462;BME280;4769;42.660;23.262;2023-01-10T12:26:16;92844.97;;;6.15;100.00
9462;BME280;4769;42.660;23.262;2023-01-10T12:28:49;92856.91;;;6.27;100.00
9462;BME280;4769;42.660;23.262;2023-01-10T12:31:19;92863.25;;;6.10;100.00
9462;BME280;4769;42.660;23.262;2023-01-10T12:33:51;92863.81;;;5.95;100.00
9462;BME280;4769;42.660;23.262;2023-01-10T12:36:29;92854.59;;;5.88;100.00
9462;BME280;4769;42.660;23.262;2023-01-10T12:39:05;92844.63;;;6.06;100.00
9462;BME280;4769;42.660;23.262;2023-01-10T12:41:37;92836.94;;;6.21;100.00
9462;BME280;4769;42.660;23.262;2023-01-10T12:44:35;92832.56;;;6.27;100.00
9462;BME280;4769;42.660;23.262;2023-01-10T12:47:06;92822.28;;;6.20;100.00
9462;BME280;4769;42.660;23.262;2023-01-10T12:49:43;92824.22;;;6.30;100.00
9462;BME280;4769;42.660;23.262;2023-01-10T12:52:16;92837.22;;;6.46;100.00
9462;BME280;4769;42.660;23.262;2023-01-10T12:54:45;92849.94;;;6.59;100.00
9462;BME280;4769;42.660;23.262;2023-01-10T12:57:22;92849.44;;;6.62;100.00
9462;BME280;4769;42.660;23.262;2023-01-10T12:59:54;92842.22;;;6.48;100.00
9462;BME280;4769;42.660;23.262;2023-01-10T13:02:26;92854.03;;;6.50;100.00
9462;BME280;4769;42.660;23.262;2023-01-10T13:04:56;92850.16;;;6.58;100.00
9462;BME280;4769;42.660;23.262;2023-01-10T13:07:26;92845.59;;;6.43;100.00
9462;BME280;4769;42.660;23.262;2023-01-10T13:09:57;92852.72;;;6.26;100.00
9462;BME280;4769;42.660;23.262;2023-01-10T13:12:30;92849.44;;;6.36;100.00
9462;BME280;4769;42.660;23.262;2023-01-10T13:15:04;92850.84;;;6.22;100.00
9462;BME280;4769;42.660;23.262;2023-01-10T13:17:38;92841.84;;;6.13;100.00
9462;BME280;4769;42.660;23.262;2023-01-10T13:20:28;92862.09;;;6.22;100.00
9462;BME280;4769;42.660;23.262;2023-01-10T13:22:56;92858.91;;;6.42;100.00
9462;BME280;4769;42.660;23.262;2023-01-10T13:25:26;92861.09;;;6.28;100.00
9462;BME280;4769;42.660;23.262;2023-01-10T13:27:55;92857.47;;;6.29;100.00
9462;BME280;4769;42.660;23.262;2023-01-10T13:30:26;92870.59;;;6.34;100.00
9462;BME280;4769;42.660;23.262;2023-01-10T13:33:01;92862.25;;;6.16;100.00
9462;BME280;4769;42.660;23.262;2023-01-10T13:35:37;92866.41;;;6.12;100.00
9462;BME280;4769;42.660;23.262;2023-01-10T13:38:05;92875.69;;;6.03;100.00
9462;BME280;4769;42.660;23.262;2023-01-10T13:40:55;92869.44;;;6.04;100.00
9462;BME280;4769;42.660;23.262;2023-01-10T13:46:40;92870.06;;;6.11;100.00
9462;BME280;4769;42.660;23.262;2023-01-10T13:52:38;92878.94;;;6.31;100.00
9462;BME280;4769;42.660;23.262;2023-01-10T13:55:24;92882.41;;;6.37;100.00
9462;BME280;4769;42.660;23.262;2023-01-10T13:57:56;92875.53;;;6.52;100.00
9462;BME280;4769;42.660;23.262;2023-01-10T14:03:47;92857.88;;;6.43;100.00
9462;BME280;4769;42.660;23.262;2023-01-10T14:06:37;92863.94;;;6.22;100.00
9462;BME280;4769;42.660;23.262;2023-01-10T14:09:38;92874.56;;;6.37;100.00
9462;BME280;4769;42.660;23.262;2023-01-10T14:12:21;92873.53;;;6.16;100.00
9462;BME280;4769;42.660;23.262;2023-01-10T14:14:52;92866.78;;;6.20;100.00
9462;BME280;4769;42.660;23.262;2023-01-10T14:17:22;92878.66;;;6.28;100.00
9462;BME280;4769;42.660;23.262;2023-01-10T14:20:00;92881.97;;;6.23;100.00
9462;BME280;4769;42.660;23.262;2023-01-10T14:22:29;92870.34;;;6.14;100.00
9462;BME280;4769;42.660;23.262;2023-01-10T14:24:58;92880.34;;;6.17;100.00
9462;BME280;4769;42.660;23.262;2023-01-10T14:27:36;92892.88;;;5.94;100.00